Kashan, Iran

3:55 PM IRDT on August 28, 2016 (GMT +0430)
Kashan | | Change Station

Elev 3222 ft 33.98 °N, 51.45 °E | Updated 25 minutes ago

Clear
Clear
100 °F
Feels Like 100 °F
N
5
Wind Variable Wind from NNE

Today
High -- | Low -- °F
--% Chance of Precip.
Yesterday
High -- | Low -- °F
Precip. -- in
Pressure 29.98 in
Visibility -9999.0 miles
Clouds
Dew Point 37 °F
Humidity 11%
Rainfall 0.00 in
Snow Depth Not available.
6:35 AM 7:35 PM
Waning Crescent, 16% visible
METAR OIFK 281100Z 02004KT CAVOK 38/03 Q1015
Pressure 29.98 in
Visibility -9999.0 miles
Clouds
Dew Point 37 °F
Humidity 11%
Rainfall 0.00 in
Snow Depth Not available.
6:35 AM 7:35 PM
Waning Crescent, 16% visible
METAR OIFK 281100Z 02004KT CAVOK 38/03 Q1015

10-Day Weather Forecast

No radar image for this location.
×

Almanac

Astronomy

Aug. 28, 2016 Rise Set
Actual Time
Civil Twilight
Nautical Twilight
Astronomical Twilight
Moon
Length of Visible Light
Length of Day
Tomorrow will be .
, % of the Moon is Illuminated

Today's Extremes

Country Highs Country Lows

Community

WunderPhotos

Upload Photos

1,935,543 photos uploaded!

WunderBlog® & News

Nearby

Air Quality

  Air Quality AQ Index Pollutant
Not available.

Snow Depth

Station Depth Elevation

Earthquake Activity

City Distance Mag. Time & Date
Minimum magnitude displayed is 2.5.

Coastal Water Temperatures

Place Temperature

Stations

Nearby Weather Stations

Station Location Temp. Windchill Dew Point Humidity Wind Precip. Elev Updated Type